createdAt,value
2023-04-09T00:00:33.524Z,0.62
2023-04-09T00:01:23.543Z,0.60
2023-04-09T00:02:13.685Z,0.61
2023-04-09T00:03:03.987Z,0.60
2023-04-09T00:03:54.069Z,0.62
2023-04-09T00:04:44.110Z,0.60
2023-04-09T00:05:34.100Z,0.61
2023-04-09T00:06:25.245Z,0.62
2023-04-09T00:07:14.250Z,0.60
2023-04-09T00:08:04.221Z,0.61
2023-04-09T00:08:54.445Z,0.61
2023-04-09T00:09:44.312Z,0.62
2023-04-09T00:10:34.401Z,0.62
2023-04-09T00:11:24.416Z,0.60
2023-04-09T00:12:14.534Z,0.62
2023-04-09T00:13:04.547Z,0.61
2023-04-09T00:13:54.625Z,0.60
2023-04-09T00:14:44.639Z,0.60
2023-04-09T00:15:34.744Z,0.61
2023-04-09T00:16:24.790Z,0.60
2023-04-09T00:17:14.840Z,0.60
2023-04-09T00:18:05.021Z,0.61
2023-04-09T00:18:55.212Z,0.61
2023-04-09T00:19:45.265Z,0.59
2023-04-09T00:20:35.362Z,0.60
2023-04-09T00:21:25.373Z,0.59
2023-04-09T00:22:15.453Z,0.59
2023-04-09T00:23:05.534Z,0.58
2023-04-09T00:23:55.583Z,0.62
2023-04-09T00:24:45.648Z,0.59
2023-04-09T00:25:35.739Z,0.60
2023-04-09T00:26:25.753Z,0.59
2023-04-09T00:27:15.818Z,0.60
2023-04-09T00:28:05.972Z,0.59
2023-04-09T00:28:56.034Z,0.59
2023-04-09T00:29:46.101Z,0.58
2023-04-09T00:30:36.469Z,0.59
2023-04-09T00:31:26.521Z,0.59
2023-04-09T00:32:16.574Z,0.58
2023-04-09T00:33:06.741Z,0.57
2023-04-09T00:33:56.690Z,0.59
2023-04-09T00:34:46.754Z,0.59
2023-04-09T00:35:36.844Z,0.61
2023-04-09T00:36:27.121Z,0.63
2023-04-09T00:37:16.950Z,0.62
2023-04-09T00:38:07.000Z,0.61
2023-04-09T00:38:57.084Z,0.62
2023-04-09T00:39:47.356Z,0.61
2023-04-09T00:40:37.446Z,0.61
2023-04-09T00:41:27.451Z,0.60
2023-04-09T00:42:17.513Z,0.61
2023-04-09T00:43:07.587Z,0.63
2023-04-09T00:43:57.652Z,0.63
2023-04-09T00:44:47.719Z,0.62
2023-04-09T00:45:37.845Z,0.61
2023-04-09T00:46:27.846Z,0.63
2023-04-09T00:47:17.917Z,0.63
2023-04-09T00:48:07.948Z,0.65
2023-04-09T00:48:58.187Z,0.62
2023-04-09T00:49:48.261Z,0.62
2023-04-09T00:50:38.340Z,0.61
2023-04-09T00:51:28.376Z,0.62
2023-04-09T00:52:18.431Z,0.62
2023-04-09T00:53:08.515Z,0.64
2023-04-09T00:53:58.575Z,0.64
2023-04-09T00:54:48.663Z,0.62
2023-04-09T00:55:38.731Z,0.62
2023-04-09T00:56:28.756Z,0.64
2023-04-09T00:57:18.835Z,0.63
2023-04-09T00:58:09.039Z,0.62
2023-04-09T00:58:59.121Z,0.63
2023-04-09T00:59:49.139Z,0.63
2023-04-09T01:00:39.234Z,0.63
2023-04-09T01:01:29.312Z,0.61
2023-04-09T01:02:19.389Z,0.60
2023-04-09T01:03:09.528Z,0.61
2023-04-09T01:03:59.394Z,0.62
2023-04-09T01:04:49.455Z,0.62
2023-04-09T01:05:39.542Z,0.61
2023-04-09T01:06:29.566Z,0.61
2023-04-09T01:07:19.896Z,0.62
2023-04-09T01:08:09.958Z,0.60
2023-04-09T01:09:00.044Z,0.61
2023-04-09T01:09:50.335Z,0.59
2023-04-09T01:10:40.411Z,0.58
2023-04-09T01:11:30.430Z,0.57
2023-04-09T01:12:20.506Z,0.59
2023-04-09T01:13:10.572Z,0.57
2023-04-09T01:14:00.643Z,0.56
2023-04-09T01:14:50.703Z,0.57
2023-04-09T01:15:40.803Z,0.57
2023-04-09T01:16:30.859Z,0.59
2023-04-09T01:17:20.910Z,0.57
2023-04-09T01:18:10.963Z,0.59
2023-04-09T01:19:01.116Z,0.57
2023-04-09T01:19:51.183Z,0.56
2023-04-09T01:20:41.265Z,0.58
2023-04-09T01:21:31.285Z,0.56
2023-04-09T01:22:21.360Z,0.57
2023-04-09T01:23:11.382Z,0.56
2023-04-09T01:24:01.453Z,0.56
2023-04-09T01:24:51.515Z,0.57
2023-04-09T01:25:41.632Z,0.56
2023-04-09T01:26:31.626Z,0.54
2023-04-09T01:27:21.706Z,0.56
2023-04-09T01:28:11.932Z,0.57
2023-04-09T01:29:02.008Z,0.56
2023-04-09T01:29:52.065Z,0.58
2023-04-09T01:30:42.212Z,0.58
2023-04-09T01:31:32.185Z,0.56
2023-04-09T01:32:22.271Z,0.55
2023-04-09T01:33:12.269Z,0.57
2023-04-09T01:34:02.346Z,0.55
2023-04-09T01:34:52.401Z,0.55
2023-04-09T01:35:42.507Z,0.54
2023-04-09T01:36:32.526Z,0.53
2023-04-09T01:37:22.595Z,0.55
2023-04-09T01:38:12.667Z,0.54
2023-04-09T01:39:02.754Z,0.53
2023-04-09T01:39:52.792Z,0.52
2023-04-09T01:40:42.885Z,0.51
2023-04-09T01:41:32.923Z,0.54
2023-04-09T01:42:22.954Z,0.55
2023-04-09T01:43:13.021Z,0.53
2023-04-09T01:44:03.269Z,0.51
2023-04-09T01:44:53.289Z,0.53
2023-04-09T01:45:43.422Z,0.53
2023-04-09T01:46:33.473Z,0.53
2023-04-09T01:47:23.521Z,0.54
2023-04-09T01:48:13.567Z,0.53
2023-04-09T01:49:03.638Z,0.56
2023-04-09T01:49:53.703Z,0.54
2023-04-09T01:50:43.785Z,0.52
2023-04-09T01:51:33.819Z,0.52
2023-04-09T01:52:23.866Z,0.53
2023-04-09T01:53:14.051Z,0.53
2023-04-09T01:54:04.118Z,0.53
2023-04-09T01:54:54.176Z,0.52
2023-04-09T01:55:44.278Z,0.54
2023-04-09T01:56:34.296Z,0.54
2023-04-09T01:57:24.401Z,0.53
2023-04-09T01:58:14.396Z,0.53
2023-04-09T01:59:04.468Z,0.53
2023-04-09T01:59:54.525Z,0.51
2023-04-09T02:00:44.618Z,0.51
2023-04-09T02:01:34.708Z,0.52
2023-04-09T02:02:25.044Z,0.52
2023-04-09T02:03:15.066Z,0.53
2023-04-09T02:04:05.046Z,0.52
2023-04-09T02:04:55.069Z,0.52
2023-04-09T02:05:45.155Z,0.53
2023-04-09T02:06:35.167Z,0.55
2023-04-09T02:07:25.232Z,0.52
2023-04-09T02:08:15.293Z,0.53
2023-04-09T02:09:05.376Z,0.54
2023-04-09T02:09:55.428Z,0.52
2023-04-09T02:10:45.524Z,0.53
2023-04-09T02:11:35.777Z,0.54
2023-04-09T02:12:25.865Z,0.58
2023-04-09T02:13:15.911Z,0.55
2023-04-09T02:14:06.195Z,0.57
2023-04-09T02:14:56.254Z,0.58
2023-04-09T02:15:46.371Z,0.57
2023-04-09T02:16:36.410Z,0.56
2023-04-09T02:17:26.446Z,0.59
2023-04-09T02:18:16.497Z,0.57
2023-04-09T02:19:06.566Z,0.57
2023-04-09T02:19:56.631Z,0.58
2023-04-09T02:20:46.718Z,0.55
2023-04-09T02:21:36.728Z,0.57
2023-04-09T02:22:26.808Z,0.56
2023-04-09T02:23:17.038Z,0.57
2023-04-09T02:24:07.110Z,0.57
2023-04-09T02:24:57.174Z,0.56
2023-04-09T02:25:47.264Z,0.54
2023-04-09T02:26:37.301Z,0.56
2023-04-09T02:27:27.363Z,0.55
2023-04-09T02:28:17.457Z,0.54
2023-04-09T02:29:07.504Z,0.53
2023-04-09T02:29:57.577Z,0.54
2023-04-09T02:30:48.307Z,0.53
2023-04-09T02:31:37.679Z,0.53
2023-04-09T02:32:28.061Z,0.53
2023-04-09T02:33:18.078Z,0.53
2023-04-09T02:34:08.156Z,0.53
2023-04-09T02:34:58.436Z,0.53
2023-04-09T02:35:48.551Z,0.54
2023-04-09T02:36:38.557Z,0.52
2023-04-09T02:37:28.596Z,0.53
2023-04-09T02:38:18.660Z,0.54
2023-04-09T02:39:08.729Z,0.51
2023-04-09T02:39:58.795Z,0.52
2023-04-09T02:40:48.880Z,0.52
2023-04-09T02:41:38.890Z,0.53
2023-04-09T02:42:28.987Z,0.51
2023-04-09T02:43:19.023Z,0.52
2023-04-09T02:44:09.291Z,0.51
2023-04-09T02:44:59.332Z,0.51
2023-04-09T02:45:49.419Z,0.51
2023-04-09T02:46:39.731Z,0.51
2023-04-09T02:47:29.783Z,0.50
2023-04-09T02:48:19.818Z,0.51
2023-04-09T02:49:10.145Z,0.52
2023-04-09T02:50:00.242Z,0.51
2023-04-09T02:50:50.295Z,0.51
2023-04-09T02:51:40.319Z,0.52
2023-04-09T02:52:30.405Z,0.52
2023-04-09T02:53:20.418Z,0.51
2023-04-09T02:54:10.486Z,0.51
2023-04-09T02:55:00.570Z,0.51
2023-04-09T02:55:50.635Z,0.53
2023-04-09T02:56:40.684Z,0.51
2023-04-09T02:57:30.689Z,0.51
2023-04-09T02:58:21.056Z,0.53
2023-04-09T02:59:11.108Z,0.51
2023-04-09T03:00:01.144Z,0.51
2023-04-09T03:00:51.205Z,0.51
2023-04-09T03:01:41.339Z,0.53
2023-04-09T03:02:31.408Z,0.51
2023-04-09T03:03:21.548Z,0.52
2023-04-09T03:04:11.525Z,0.51
2023-04-09T03:05:01.472Z,0.52
2023-04-09T03:05:51.544Z,0.52
2023-04-09T03:06:41.564Z,0.51
2023-04-09T03:07:31.638Z,0.52
2023-04-09T03:08:21.705Z,0.51
2023-04-09T03:09:11.758Z,0.51
2023-04-09T03:10:01.798Z,0.52
2023-04-09T03:10:51.886Z,0.51
2023-04-09T03:11:41.930Z,0.52
2023-04-09T03:12:31.985Z,0.51
2023-04-09T03:13:22.046Z,0.51
2023-04-09T03:14:12.286Z,0.52
2023-04-09T03:15:02.361Z,0.51
2023-04-09T03:15:52.521Z,0.54
2023-04-09T03:16:42.747Z,0.53
2023-04-09T03:17:32.860Z,0.53
2023-04-09T03:18:22.848Z,0.54
2023-04-09T03:19:12.930Z,0.53
2023-04-09T03:20:03.000Z,0.53
2023-04-09T03:20:53.075Z,0.52
2023-04-09T03:21:43.145Z,0.52
2023-04-09T03:22:33.166Z,0.53
2023-04-09T03:23:23.222Z,0.53
2023-04-09T03:24:13.301Z,0.54
2023-04-09T03:25:03.351Z,0.52
2023-04-09T03:25:53.670Z,0.51
2023-04-09T03:26:43.705Z,0.52
2023-04-09T03:27:33.758Z,0.52
2023-04-09T03:28:24.090Z,0.52
2023-04-09T03:29:14.151Z,0.53
2023-04-09T03:30:04.225Z,0.53
2023-04-09T03:30:54.564Z,0.54
2023-04-09T03:31:44.601Z,0.52
2023-04-09T03:32:34.675Z,0.52
2023-04-09T03:33:24.663Z,0.54
2023-04-09T03:34:14.741Z,0.53
2023-04-09T03:35:04.798Z,0.55
2023-04-09T03:35:54.917Z,0.54
2023-04-09T03:36:44.947Z,0.54
2023-04-09T03:37:34.973Z,0.54
2023-04-09T03:38:25.000Z,0.53
2023-04-09T03:39:15.072Z,0.54
2023-04-09T03:40:05.348Z,0.54
2023-04-09T03:40:55.433Z,0.56
2023-04-09T03:41:45.457Z,0.55
2023-04-09T03:42:35.535Z,0.54
2023-04-09T03:43:25.604Z,0.54
2023-04-09T03:44:15.668Z,0.56
2023-04-09T03:45:05.738Z,0.53
2023-04-09T03:45:55.825Z,0.54
2023-04-09T03:46:45.870Z,0.54
2023-04-09T03:47:35.918Z,0.55
2023-04-09T03:48:25.950Z,0.56
2023-04-09T03:49:16.217Z,0.58
2023-04-09T03:50:06.261Z,0.58
2023-04-09T03:50:56.364Z,0.57
2023-04-09T03:51:46.653Z,0.60
2023-04-09T03:52:36.722Z,0.60
2023-04-09T03:53:26.784Z,0.60
2023-04-09T03:54:16.870Z,0.60
2023-04-09T03:55:06.923Z,0.59
2023-04-09T03:55:57.010Z,0.59
2023-04-09T03:56:47.042Z,0.59
2023-04-09T03:57:37.115Z,0.60
2023-04-09T03:58:27.177Z,0.59
2023-04-09T03:59:17.258Z,0.57
2023-04-09T04:00:07.290Z,0.58
2023-04-09T04:00:57.581Z,0.58
2023-04-09T04:01:47.668Z,0.58
2023-04-09T04:02:37.851Z,0.58
2023-04-09T04:03:27.817Z,0.59
2023-04-09T04:04:18.222Z,0.59
2023-04-09T04:05:07.950Z,0.58
2023-04-09T04:05:58.047Z,0.56
2023-04-09T04:06:48.070Z,0.59
2023-04-09T04:07:38.148Z,0.58
2023-04-09T04:08:28.211Z,0.57
2023-04-09T04:09:18.282Z,0.56
2023-04-09T04:10:08.349Z,0.57
2023-04-09T04:10:58.431Z,0.56
2023-04-09T04:11:48.460Z,0.57
2023-04-09T04:12:38.537Z,0.56
2023-04-09T04:13:28.652Z,0.55
2023-04-09T04:14:18.820Z,0.53
2023-04-09T04:15:08.890Z,0.54
2023-04-09T04:15:58.999Z,0.53
2023-04-09T04:16:49.257Z,0.54
2023-04-09T04:17:39.366Z,0.55
2023-04-09T04:18:29.381Z,0.55
2023-04-09T04:19:19.468Z,0.54
2023-04-09T04:20:09.522Z,0.56
2023-04-09T04:20:59.601Z,0.55
2023-04-09T04:21:49.622Z,0.54
2023-04-09T04:22:39.694Z,0.54
2023-04-09T04:23:29.725Z,0.55
2023-04-09T04:24:19.797Z,0.54
2023-04-09T04:25:09.852Z,0.54
2023-04-09T04:26:00.145Z,0.53
2023-04-09T04:26:50.137Z,0.55
2023-04-09T04:27:40.212Z,0.54
2023-04-09T04:28:30.532Z,0.53
2023-04-09T04:29:20.614Z,0.53
2023-04-09T04:30:10.666Z,0.53
2023-04-09T04:31:01.004Z,0.53
2023-04-09T04:31:51.052Z,0.54
2023-04-09T04:32:41.110Z,0.55
2023-04-09T04:33:31.150Z,0.54
2023-04-09T04:34:21.223Z,0.55
2023-04-09T04:35:11.327Z,0.53
2023-04-09T04:36:01.411Z,0.53
2023-04-09T04:36:51.409Z,0.53
2023-04-09T04:37:41.453Z,0.52
2023-04-09T04:38:31.519Z,0.53
2023-04-09T04:39:21.599Z,0.54
2023-04-09T04:40:11.865Z,0.51
2023-04-09T04:41:01.961Z,0.51
2023-04-09T04:41:51.963Z,0.51
2023-04-09T04:42:42.045Z,0.51
2023-04-09T04:43:32.099Z,0.51
2023-04-09T04:44:22.179Z,0.52
2023-04-09T04:45:12.205Z,0.51
2023-04-09T04:46:02.375Z,0.50
2023-04-09T04:46:52.326Z,0.52
2023-04-09T04:47:42.440Z,0.52
2023-04-09T04:48:32.434Z,0.51
2023-04-09T04:49:22.508Z,0.51
2023-04-09T04:50:12.563Z,0.52
2023-04-09T04:51:02.672Z,0.53
2023-04-09T04:51:52.684Z,0.53
2023-04-09T04:52:42.772Z,0.54
2023-04-09T04:53:32.797Z,0.52
2023-04-09T04:54:22.883Z,0.51
2023-04-09T04:55:12.935Z,0.52
2023-04-09T04:56:03.254Z,0.52
2023-04-09T04:56:53.268Z,0.51
2023-04-09T04:57:43.338Z,0.51
2023-04-09T04:58:33.409Z,0.52
2023-04-09T04:59:23.481Z,0.51
2023-04-09T05:00:13.549Z,0.53
2023-04-09T05:01:03.694Z,0.52
2023-04-09T05:01:53.697Z,0.52
2023-04-09T05:02:43.801Z,0.52
2023-04-09T05:03:33.805Z,0.52
2023-04-09T05:04:23.796Z,0.52
2023-04-09T05:05:14.138Z,0.53
2023-04-09T05:06:04.205Z,0.52
2023-04-09T05:06:54.273Z,0.52
2023-04-09T05:07:44.270Z,0.53
2023-04-09T05:08:34.338Z,0.53
2023-04-09T05:09:24.408Z,0.52
2023-04-09T05:10:14.476Z,0.51
2023-04-09T05:11:04.556Z,0.52
2023-04-09T05:11:54.581Z,0.52
2023-04-09T05:12:44.655Z,0.52
2023-04-09T05:13:34.703Z,0.51
2023-04-09T05:14:24.963Z,0.51
2023-04-09T05:15:14.979Z,0.52
2023-04-09T05:16:05.067Z,0.51
2023-04-09T05:16:55.157Z,0.52
2023-04-09T05:17:45.164Z,0.52
2023-04-09T05:18:35.218Z,0.51
2023-04-09T05:19:25.298Z,0.51
2023-04-09T05:20:15.314Z,0.52
2023-04-09T05:21:05.406Z,0.52
2023-04-09T05:21:55.420Z,0.50
2023-04-09T05:22:45.514Z,0.52
2023-04-09T05:23:35.814Z,0.53
2023-04-09T05:24:25.871Z,0.51
2023-04-09T05:25:15.974Z,0.52
2023-04-09T05:26:06.031Z,0.51
2023-04-09T05:26:56.052Z,0.53
2023-04-09T05:27:46.134Z,0.52
2023-04-09T05:28:36.204Z,0.52
2023-04-09T05:29:26.239Z,0.52
2023-04-09T05:30:16.289Z,0.53
2023-04-09T05:31:12.831Z,0.52
2023-04-09T05:31:56.403Z,0.52
2023-04-09T05:32:46.483Z,0.52
2023-04-09T05:33:36.550Z,0.52
2023-04-09T05:34:26.619Z,0.52
2023-04-09T05:35:16.686Z,0.53
2023-04-09T05:36:06.763Z,0.52
2023-04-09T05:36:56.812Z,0.55
2023-04-09T05:37:46.844Z,0.54
2023-04-09T05:38:36.941Z,0.54
2023-04-09T05:39:27.157Z,0.54
2023-04-09T05:40:17.217Z,0.54
2023-04-09T05:41:07.276Z,0.55
2023-04-09T05:41:57.355Z,0.53
2023-04-09T05:42:47.372Z,0.55
2023-04-09T05:43:37.446Z,0.54
2023-04-09T05:44:27.515Z,0.54
2023-04-09T05:45:17.590Z,0.53
2023-04-09T05:46:07.655Z,0.54
2023-04-09T05:46:57.701Z,0.53
2023-04-09T05:47:47.767Z,0.53
2023-04-09T05:48:38.045Z,0.52
2023-04-09T05:49:28.100Z,0.53
2023-04-09T05:50:18.164Z,0.54
2023-04-09T05:51:08.445Z,0.51
2023-04-09T05:51:58.555Z,0.53
2023-04-09T05:52:48.563Z,0.53
2023-04-09T05:53:38.642Z,0.53
2023-04-09T05:54:28.721Z,0.51
2023-04-09T05:55:18.739Z,0.52
2023-04-09T05:56:08.792Z,0.52
2023-04-09T05:56:58.879Z,0.53
2023-04-09T05:57:48.903Z,0.53
2023-04-09T05:58:38.979Z,0.55
2023-04-09T05:59:29.005Z,0.54
2023-04-09T06:00:19.341Z,0.52
2023-04-09T06:01:09.361Z,0.54
2023-04-09T06:01:59.513Z,0.54
2023-04-09T06:02:49.533Z,0.53
2023-04-09T06:03:39.720Z,0.53
2023-04-09T06:04:29.581Z,0.53
2023-04-09T06:05:19.615Z,0.55
2023-04-09T06:06:09.654Z,0.55
2023-04-09T06:06:59.738Z,0.54
2023-04-09T06:07:49.796Z,0.53
2023-04-09T06:08:39.873Z,0.54
2023-04-09T06:09:30.180Z,0.53
2023-04-09T06:10:20.272Z,0.55
2023-04-09T06:11:10.342Z,0.53
2023-04-09T06:12:00.617Z,0.56
2023-04-09T06:12:50.705Z,0.56
2023-04-09T06:13:40.767Z,0.54
2023-04-09T06:14:31.047Z,0.54
2023-04-09T06:15:21.173Z,0.53
2023-04-09T06:16:11.320Z,0.53
2023-04-09T06:17:01.511Z,0.55
2023-04-09T06:17:51.565Z,0.53
2023-04-09T06:18:41.603Z,0.54
2023-04-09T06:19:31.926Z,0.52
2023-04-09T06:20:22.001Z,0.53
2023-04-09T06:21:12.059Z,0.54
2023-04-09T06:22:02.089Z,0.52
2023-04-09T06:22:52.115Z,0.54
2023-04-09T06:23:42.182Z,0.54
2023-04-09T06:24:32.253Z,0.53
2023-04-09T06:25:22.315Z,0.54
2023-04-09T06:26:12.405Z,0.54
2023-04-09T06:27:02.473Z,0.54
2023-04-09T06:27:52.492Z,0.55
2023-04-09T06:28:42.815Z,0.53
2023-04-09T06:29:32.884Z,0.52
2023-04-09T06:30:22.954Z,0.52
2023-04-09T06:31:13.247Z,0.52
2023-04-09T06:32:03.289Z,0.54
2023-04-09T06:32:55.300Z,0.53
2023-04-09T06:33:43.364Z,0.52
2023-04-09T06:34:33.427Z,0.54
2023-04-09T06:35:23.497Z,0.55
2023-04-09T06:36:13.606Z,0.57
2023-04-09T06:37:03.661Z,0.59
2023-04-09T06:37:53.935Z,0.58
2023-04-09T06:38:44.009Z,0.57
2023-04-09T06:39:34.056Z,0.59
2023-04-09T06:40:24.082Z,0.57
2023-04-09T06:41:14.130Z,0.58
2023-04-09T06:42:04.243Z,0.57
2023-04-09T06:42:54.289Z,0.58
2023-04-09T06:43:44.322Z,0.56
2023-04-09T06:44:34.374Z,0.58
2023-04-09T06:45:24.433Z,0.60
2023-04-09T06:46:14.456Z,0.59
2023-04-09T06:47:04.789Z,0.55
2023-04-09T06:47:54.860Z,0.56
2023-04-09T06:48:44.896Z,0.56
2023-04-09T06:49:34.930Z,0.56
2023-04-09T06:50:25.010Z,0.57
2023-04-09T06:51:15.095Z,0.57
2023-04-09T06:52:05.091Z,0.54
2023-04-09T06:52:55.131Z,0.53
2023-04-09T06:53:45.225Z,0.54
2023-04-09T06:54:35.220Z,0.54
2023-04-09T06:55:25.291Z,0.55
2023-04-09T06:56:15.351Z,0.59
2023-04-09T06:57:05.448Z,0.58
2023-04-09T06:57:55.496Z,0.59
2023-04-09T06:58:45.559Z,0.58
2023-04-09T06:59:35.577Z,0.57
2023-04-09T07:00:25.648Z,0.57
2023-04-09T07:01:15.714Z,0.56
2023-04-09T07:02:05.918Z,0.56
2023-04-09T07:02:56.318Z,0.57
2023-04-09T07:03:46.156Z,0.55
2023-04-09T07:04:36.293Z,0.54
2023-04-09T07:05:26.222Z,0.54
2023-04-09T07:06:16.284Z,0.54
2023-04-09T07:07:06.363Z,0.54
2023-04-09T07:07:56.420Z,0.54
2023-04-09T07:08:46.489Z,0.53
2023-04-09T07:09:36.546Z,0.54
2023-04-09T07:10:26.715Z,0.53
2023-04-09T07:11:16.668Z,0.53
2023-04-09T07:12:06.947Z,0.53
2023-04-09T07:12:56.970Z,0.54
2023-04-09T07:13:47.060Z,0.52
2023-04-09T07:14:37.087Z,0.53
2023-04-09T07:15:27.177Z,0.52
2023-04-09T07:16:17.241Z,0.53
2023-04-09T07:17:07.255Z,0.53
2023-04-09T07:17:57.309Z,0.52
2023-04-09T07:18:47.345Z,0.52
2023-04-09T07:19:37.413Z,0.54
2023-04-09T07:20:27.485Z,0.52
2023-04-09T07:21:17.777Z,0.52
2023-04-09T07:22:07.883Z,0.52
2023-04-09T07:22:57.904Z,0.54
2023-04-09T07:23:47.968Z,0.55
2023-04-09T07:24:38.038Z,0.55
2023-04-09T07:25:28.137Z,0.56
2023-04-09T07:26:18.133Z,0.56
2023-04-09T07:27:08.220Z,0.54
2023-04-09T07:27:58.242Z,0.55
2023-04-09T07:28:48.342Z,0.52
2023-04-09T07:29:38.358Z,0.55
2023-04-09T07:30:28.635Z,0.55
2023-04-09T07:32:08.766Z,0.54
2023-04-09T07:32:58.806Z,0.53
2023-04-09T07:33:48.874Z,0.55
2023-04-09T07:34:38.897Z,0.54
2023-04-09T07:35:28.966Z,0.54
2023-04-09T07:36:19.038Z,0.55
2023-04-09T07:37:09.119Z,0.54
2023-04-09T07:37:59.138Z,0.56
2023-04-09T07:38:49.212Z,0.56
2023-04-09T07:39:39.235Z,0.56
2023-04-09T07:40:29.311Z,0.55
2023-04-09T07:41:19.376Z,0.56
2023-04-09T07:42:09.458Z,0.56
2023-04-09T07:42:59.481Z,0.56
2023-04-09T07:43:49.556Z,0.57
2023-04-09T07:44:39.653Z,0.54
2023-04-09T07:45:29.704Z,0.57
2023-04-09T07:46:19.964Z,0.55
2023-04-09T07:47:10.257Z,0.55
2023-04-09T07:48:00.161Z,0.55
2023-04-09T07:48:50.839Z,0.54
2023-04-09T07:49:40.462Z,0.55
2023-04-09T07:50:30.494Z,0.53
2023-04-09T07:51:20.556Z,0.54
2023-04-09T07:52:10.680Z,0.55
2023-04-09T07:53:00.710Z,0.54
2023-04-09T07:53:50.743Z,0.54
2023-04-09T07:54:40.778Z,0.55
2023-04-09T07:55:30.864Z,0.56
2023-04-09T07:56:20.915Z,0.57
2023-04-09T07:57:10.985Z,0.56
2023-04-09T07:58:01.270Z,0.55
2023-04-09T07:58:51.612Z,0.58
2023-04-09T07:59:41.398Z,0.56
2023-04-09T08:00:31.504Z,0.56
2023-04-09T08:01:21.528Z,0.55
2023-04-09T08:02:14.328Z,0.57
2023-04-09T08:03:01.832Z,0.55
2023-04-09T08:03:52.129Z,0.54
2023-04-09T08:04:42.124Z,0.56
2023-04-09T08:05:32.013Z,0.57
2023-04-09T08:06:22.339Z,0.56
2023-04-09T08:07:12.415Z,0.55
2023-04-09T08:08:02.460Z,0.56
2023-04-09T08:08:52.695Z,0.54
2023-04-09T08:09:42.566Z,0.56
2023-04-09T08:10:32.614Z,0.56
2023-04-09T08:11:22.680Z,0.56
2023-04-09T08:12:12.838Z,0.56
2023-04-09T08:13:03.041Z,0.56
2023-04-09T08:13:53.115Z,0.56
2023-04-09T08:14:43.182Z,0.55
2023-04-09T08:15:33.507Z,0.54
2023-04-09T08:16:23.649Z,0.55
2023-04-09T08:17:13.624Z,0.56
2023-04-09T08:18:03.714Z,0.57
2023-04-09T08:18:53.884Z,0.58
2023-04-09T08:19:43.773Z,0.55
2023-04-09T08:20:33.800Z,0.57
2023-04-09T08:21:23.868Z,0.55
2023-04-09T08:22:13.960Z,0.56
2023-04-09T08:23:03.984Z,0.56
2023-04-09T08:23:54.047Z,0.56
2023-04-09T08:24:44.155Z,0.55
2023-04-09T08:25:34.148Z,0.55
2023-04-09T08:26:24.211Z,0.53
2023-04-09T08:27:14.298Z,0.55
2023-04-09T08:28:04.332Z,0.53
2023-04-09T08:28:54.718Z,0.56
2023-04-09T08:29:44.456Z,0.57
2023-04-09T08:30:34.574Z,0.58
2023-04-09T08:31:24.579Z,0.56
2023-04-09T08:32:14.760Z,0.57
2023-04-09T08:33:04.685Z,0.55
2023-04-09T08:33:54.743Z,0.55
2023-04-09T08:34:44.801Z,0.54
2023-04-09T08:35:34.875Z,0.54
2023-04-09T08:36:24.991Z,0.54
2023-04-09T08:37:15.039Z,0.54
2023-04-09T08:38:05.285Z,0.53
2023-04-09T08:38:55.718Z,0.54
2023-04-09T08:39:45.393Z,0.54
2023-04-09T08:40:35.483Z,0.54
2023-04-09T08:41:25.531Z,0.53
2023-04-09T08:42:15.625Z,0.53
2023-04-09T08:43:05.652Z,0.53
2023-04-09T08:43:58.215Z,0.54
2023-04-09T08:44:45.785Z,0.53
2023-04-09T08:45:35.901Z,0.54
2023-04-09T08:46:25.938Z,0.54
2023-04-09T08:47:16.022Z,0.53
2023-04-09T08:48:06.262Z,0.54
2023-04-09T08:48:56.421Z,0.52
2023-04-09T08:49:46.263Z,0.52
2023-04-09T08:50:36.346Z,0.54
2023-04-09T08:51:26.382Z,0.51
2023-04-09T08:52:16.457Z,0.51
2023-04-09T08:53:06.497Z,0.53
2023-04-09T08:53:56.598Z,0.52
2023-04-09T08:54:46.676Z,0.52
2023-04-09T08:55:36.710Z,0.51
2023-04-09T08:56:26.738Z,0.52
2023-04-09T08:57:17.104Z,0.51
2023-04-09T08:58:07.120Z,0.51
2023-04-09T08:58:57.186Z,0.51
2023-04-09T08:59:47.223Z,0.53
2023-04-09T09:00:37.254Z,0.54
2023-04-09T09:01:27.416Z,0.52
2023-04-09T09:02:17.472Z,0.52
2023-04-09T09:03:07.530Z,0.53
2023-04-09T09:03:57.645Z,0.51
2023-04-09T09:04:47.570Z,0.53
2023-04-09T09:05:37.645Z,0.53
2023-04-09T09:06:27.940Z,0.51
2023-04-09T09:07:18.041Z,0.52
2023-04-09T09:08:08.069Z,0.52
2023-04-09T09:08:58.127Z,0.51
2023-04-09T09:09:48.196Z,0.52
2023-04-09T09:10:38.265Z,0.52
2023-04-09T09:11:28.327Z,0.52
2023-04-09T09:12:18.405Z,0.53
2023-04-09T09:13:08.437Z,0.52
2023-04-09T09:13:58.519Z,0.53
2023-04-09T09:14:48.564Z,0.51
2023-04-09T09:15:38.844Z,0.51
2023-04-09T09:16:28.928Z,0.51
2023-04-09T09:17:19.029Z,0.51
2023-04-09T09:18:09.117Z,0.50
2023-04-09T09:18:59.549Z,0.51
2023-04-09T09:19:49.133Z,0.52
2023-04-09T09:20:39.213Z,0.52
2023-04-09T09:21:29.247Z,0.53
2023-04-09T09:22:19.360Z,0.53
2023-04-09T09:23:09.395Z,0.51
2023-04-09T09:23:59.474Z,0.52
2023-04-09T09:24:50.578Z,0.53
2023-04-09T09:25:39.848Z,0.53
2023-04-09T09:26:29.931Z,0.52
2023-04-09T09:27:19.987Z,0.52
2023-04-09T09:28:10.025Z,0.53
2023-04-09T09:29:00.129Z,0.54
2023-04-09T09:29:50.111Z,0.53
2023-04-09T09:30:40.212Z,0.52
2023-04-09T09:31:30.302Z,0.53
2023-04-09T09:32:20.379Z,0.54
2023-04-09T09:33:10.390Z,0.55
2023-04-09T09:34:00.671Z,0.52
2023-04-09T09:34:50.717Z,0.53
2023-04-09T09:35:40.761Z,0.53
2023-04-09T09:36:30.831Z,0.53
2023-04-09T09:37:20.929Z,0.53
2023-04-09T09:38:10.961Z,0.53
2023-04-09T09:39:01.034Z,0.52
2023-04-09T09:39:51.109Z,0.54
2023-04-09T09:40:41.194Z,0.56
2023-04-09T09:41:31.252Z,0.54
2023-04-09T09:42:21.364Z,0.54
2023-04-09T09:43:13.446Z,0.53
2023-04-09T09:44:01.625Z,0.53
2023-04-09T09:44:51.694Z,0.55
2023-04-09T09:45:41.920Z,0.55
2023-04-09T09:46:31.885Z,0.53
2023-04-09T09:47:21.898Z,0.55
2023-04-09T09:48:11.939Z,0.53
2023-04-09T09:49:01.985Z,0.53
2023-04-09T09:49:52.244Z,0.53
2023-04-09T09:50:42.297Z,0.52
2023-04-09T09:51:32.334Z,0.53
2023-04-09T09:52:22.457Z,0.53
2023-04-09T09:53:12.450Z,0.53
2023-04-09T09:54:02.536Z,0.51
2023-04-09T09:54:52.588Z,0.53
2023-04-09T09:55:42.672Z,0.53
2023-04-09T09:56:32.853Z,0.52
2023-04-09T09:57:22.797Z,0.51
2023-04-09T09:58:12.842Z,0.54
2023-04-09T09:59:03.117Z,0.53
2023-04-09T09:59:53.187Z,0.53
2023-04-09T10:00:43.261Z,0.53
2023-04-09T10:01:33.362Z,0.51
2023-04-09T10:02:23.468Z,0.55
2023-04-09T10:03:13.465Z,0.56
2023-04-09T10:04:03.461Z,0.56
2023-04-09T10:04:53.482Z,0.57
2023-04-09T10:05:43.646Z,0.56
2023-04-09T10:06:33.679Z,0.57
2023-04-09T10:07:23.774Z,0.56
2023-04-09T10:08:13.808Z,0.55
2023-04-09T10:09:03.864Z,0.56
2023-04-09T10:09:53.924Z,0.53
2023-04-09T10:10:43.986Z,0.53
2023-04-09T10:11:34.048Z,0.53
2023-04-09T10:12:24.145Z,0.51
2023-04-09T10:13:14.177Z,0.53
2023-04-09T10:14:04.240Z,0.52
2023-04-09T10:14:54.527Z,0.54
2023-04-09T10:15:44.695Z,0.52
2023-04-09T10:16:34.648Z,0.53
2023-04-09T10:17:24.756Z,0.53
2023-04-09T10:18:14.753Z,0.53
2023-04-09T10:19:04.838Z,0.53
2023-04-09T10:19:54.854Z,0.54
2023-04-09T10:20:44.941Z,0.55
2023-04-09T10:21:35.027Z,0.54
2023-04-09T10:22:25.093Z,0.52
2023-04-09T10:23:15.123Z,0.52
2023-04-09T10:24:05.454Z,0.52
2023-04-09T10:24:55.516Z,0.52
2023-04-09T10:25:45.603Z,0.53
2023-04-09T10:26:35.625Z,0.54
2023-04-09T10:27:25.717Z,0.52
2023-04-09T10:28:15.751Z,0.55
2023-04-09T10:29:05.779Z,0.57
2023-04-09T10:29:55.802Z,0.55
2023-04-09T10:30:45.959Z,0.54
2023-04-09T10:31:36.011Z,0.57
2023-04-09T10:32:26.025Z,0.60
2023-04-09T10:33:16.039Z,0.61
2023-04-09T10:34:06.104Z,0.62
2023-04-09T10:34:56.164Z,0.59
2023-04-09T10:35:46.253Z,0.59
2023-04-09T10:36:36.302Z,0.58
2023-04-09T10:37:26.413Z,0.60
2023-04-09T10:38:16.435Z,0.59
2023-04-09T10:39:06.491Z,0.58
2023-04-09T10:39:56.690Z,0.58
2023-04-09T10:40:46.929Z,0.60
2023-04-09T10:41:36.816Z,0.59
2023-04-09T10:42:27.204Z,0.61
2023-04-09T10:43:17.189Z,0.62
2023-04-09T10:44:07.320Z,0.63
2023-04-09T10:44:57.296Z,0.63
2023-04-09T10:45:47.410Z,0.63
2023-04-09T10:46:37.473Z,0.65
2023-04-09T10:47:27.581Z,0.64
2023-04-09T10:48:17.539Z,0.61
2023-04-09T10:49:07.605Z,0.61
2023-04-09T10:49:57.646Z,0.60
2023-04-09T10:50:47.712Z,0.63
2023-04-09T10:51:37.939Z,0.59
2023-04-09T10:52:28.093Z,0.59
2023-04-09T10:53:18.098Z,0.59
2023-04-09T10:54:08.163Z,0.57
2023-04-09T10:54:58.174Z,0.57
2023-04-09T10:55:48.301Z,0.59
2023-04-09T10:56:38.286Z,0.60
2023-04-09T10:57:28.387Z,0.62
2023-04-09T10:58:18.370Z,0.62
2023-04-09T10:59:08.452Z,0.62
2023-04-09T10:59:58.477Z,0.61
2023-04-09T11:00:48.591Z,0.64
2023-04-09T11:01:38.639Z,0.61
2023-04-09T11:02:28.861Z,0.61
2023-04-09T11:03:18.751Z,0.62
2023-04-09T11:04:10.591Z,0.62
2023-04-09T11:04:58.875Z,0.62
2023-04-09T11:05:48.841Z,0.62
2023-04-09T11:06:38.861Z,0.61
2023-04-09T11:07:28.963Z,0.63